Time;durP1;ratioP1;P1;durP2;ratioP2;P2;SDS_P1;SDS_P2;PMS_P1;PMS_P2;Temp;Humidity;BMP_temperature;BMP_pressure;BME280_temperature;BME280_humidity;BME280_pressure;Samples;Min_cycle;Max_cycle;Signal;HPM_P1;HPM_P2
2022/09/01 00:02:27;;;;;;;2.13;1.58;;;13.00;99.90;;;;;;5039076;28;20037;-74
2022/09/01 00:04:57;;;;;;;2.97;1.95;;;13.10;99.90;;;;;;5044961;28;20040;-74
2022/09/01 00:07:25;;;;;;;2.67;1.90;;;13.10;99.90;;;;;;5027814;28;20430;-74
2022/09/01 00:09:50;;;;;;;2.20;1.92;;;13.20;99.90;;;;;;5024668;28;20044;-74
2022/09/01 00:12:16;;;;;;;2.47;1.70;;;13.20;99.90;;;;;;5024113;28;20025;-74
2022/09/01 00:14:42;;;;;;;3.53;1.88;;;13.20;99.90;;;;;;5027385;28;20025;-74
2022/09/01 00:17:10;;;;;;;2.03;1.77;;;13.10;99.90;;;;;;5027150;28;20029;-73
2022/09/01 00:19:36;;;;;;;2.40;1.90;;;13.10;99.90;;;;;;5039241;28;20514;-74
2022/09/01 00:22:02;;;;;;;2.35;1.65;;;13.10;99.90;;;;;;5046897;28;20040;-74
2022/09/01 00:24:29;;;;;;;1.80;1.60;;;13.00;99.90;;;;;;5024137;28;20040;-74
2022/09/01 00:26:55;;;;;;;2.92;2.00;;;13.00;99.90;;;;;;5043192;28;20517;-74
2022/09/01 00:29:22;;;;;;;2.03;1.75;;;12.90;99.90;;;;;;5051183;28;20072;-74
2022/09/01 00:31:48;;;;;;;2.70;1.98;;;12.80;99.90;;;;;;5030289;28;20048;-74
2022/09/01 00:34:15;;;;;;;2.33;2.00;;;12.80;99.90;;;;;;5025523;28;20037;-74
2022/09/01 00:36:41;;;;;;;3.58;2.10;;;12.70;99.90;;;;;;5045697;28;20365;-74
2022/09/01 00:39:07;;;;;;;2.15;1.77;;;12.70;99.90;;;;;;5048195;28;20039;-74
2022/09/01 00:41:37;;;;;;;1.75;1.48;;;12.70;99.90;;;;;;5040313;28;20040;-74
2022/09/01 00:44:10;;;;;;;1.92;1.70;;;12.80;99.90;;;;;;5051133;28;20036;-74
2022/09/01 00:46:43;;;;;;;2.10;1.90;;;12.80;99.90;;;;;;5043289;28;20036;-74
2022/09/01 00:49:32;;;;;;;2.67;1.63;;;12.70;99.90;;;;;;5046939;28;20037;-74
2022/09/01 00:52:29;;;;;;;2.33;1.98;;;12.70;99.90;;;;;;5034696;28;20028;-74
2022/09/01 00:54:59;;;;;;;1.70;1.52;;;12.70;99.90;;;;;;5045110;28;20033;-74
2022/09/01 00:57:25;;;;;;;1.73;1.63;;;12.70;99.90;;;;;;5044100;28;20052;-74
2022/09/01 01:00:03;;;;;;;2.20;1.70;;;12.70;99.90;;;;;;5039678;28;20044;-73
2022/09/01 01:02:28;;;;;;;2.30;1.52;;;12.70;99.90;;;;;;5031094;28;20097;-74
2022/09/01 01:04:59;;;;;;;3.30;1.58;;;12.70;99.90;;;;;;5042927;28;20116;-73
2022/09/01 01:07:26;;;;;;;2.28;2.00;;;12.60;99.90;;;;;;5046065;28;20427;-73
2022/09/01 01:09:51;;;;;;;2.33;1.70;;;12.70;99.90;;;;;;5027639;28;20086;-73
2022/09/01 01:12:18;;;;;;;2.55;1.83;;;12.70;99.90;;;;;;5036472;28;20116;-74
2022/09/01 01:14:46;;;;;;;2.45;1.70;;;12.70;99.90;;;;;;5043125;28;20033;-74
2022/09/01 01:17:12;;;;;;;1.98;1.80;;;12.70;99.90;;;;;;5028300;28;20509;-74
2022/09/01 01:23:01;;;;;;;1.67;1.58;;;12.80;99.90;;;;;;5041766;28;20105;-74
2022/09/01 01:25:47;;;;;;;1.95;1.60;;;12.80;99.90;;;;;;5046127;28;20052;-74
2022/09/01 01:28:17;;;;;;;1.65;1.55;;;12.80;99.90;;;;;;5029835;28;20052;-74
2022/09/01 01:30:49;;;;;;;2.13;1.88;;;12.90;99.90;;;;;;5045832;28;20124;-74
2022/09/01 01:33:16;;;;;;;3.40;2.03;;;12.90;99.90;;;;;;5047428;28;20087;-74
2022/09/01 01:35:42;;;;;;;2.28;1.98;;;12.90;99.90;;;;;;5023828;28;20468;-74
2022/09/01 01:38:08;;;;;;;2.00;1.80;;;12.80;99.90;;;;;;5034807;28;20068;-74
2022/09/01 01:40:36;;;;;;;2.13;1.90;;;12.90;99.90;;;;;;5025902;28;20494;-74
2022/09/01 01:43:03;;;;;;;1.95;1.75;;;12.80;99.90;;;;;;5048086;28;20052;-74
2022/09/01 01:45:29;;;;;;;2.22;1.70;;;12.80;99.90;;;;;;5045353;28;20429;-74
2022/09/01 01:47:55;;;;;;;2.22;1.83;;;12.80;99.90;;;;;;5037390;28;20644;-74
2022/09/01 01:50:34;;;;;;;2.10;2.00;;;12.80;99.90;;;;;;5045932;28;20071;-74
2022/09/01 01:53:05;;;;;;;2.33;1.75;;;12.80;99.90;;;;;;5036314;28;20110;-74
2022/09/01 01:55:30;;;;;;;2.47;1.98;;;12.70;99.90;;;;;;5034805;28;20041;-73
2022/09/01 01:57:58;;;;;;;2.50;2.10;;;12.70;99.90;;;;;;5044900;28;20044;-74
2022/09/01 02:00:28;;;;;;;2.53;1.92;;;12.70;99.90;;;;;;5043111;28;20045;-74
2022/09/01 02:02:54;;;;;;;1.85;1.70;;;12.70;99.90;;;;;;5046205;28;20071;-74
2022/09/01 02:05:28;;;;;;;1.77;1.67;;;12.60;99.90;;;;;;5037054;28;20439;-74
2022/09/01 02:07:58;;;;;;;2.35;1.70;;;12.60;99.90;;;;;;5032703;28;20520;-74
2022/09/01 02:10:30;;;;;;;3.13;1.95;;;12.60;99.90;;;;;;5039256;28;20060;-73
2022/09/01 02:13:02;;;;;;;2.00;1.90;;;12.60;99.90;;;;;;5021864;28;20181;-73
2022/09/01 02:15:28;;;;;;;2.50;1.92;;;12.50;99.90;;;;;;5039906;28;20049;-74
2022/09/01 02:17:55;;;;;;;2.75;1.95;;;12.50;99.90;;;;;;5043304;28;20040;-74
2022/09/01 02:20:21;;;;;;;2.20;2.00;;;12.50;99.90;;;;;;5032510;28;20059;-73
2022/09/01 02:22:47;;;;;;;2.55;2.00;;;12.40;99.90;;;;;;5049760;28;20029;-73
2022/09/01 02:25:15;;;;;;;2.28;1.80;;;12.40;99.90;;;;;;5038949;28;20036;-74
2022/09/01 02:27:42;;;;;;;2.70;1.80;;;12.40;99.90;;;;;;5043336;28;20079;-74
2022/09/01 02:30:09;;;;;;;1.98;1.73;;;12.30;99.90;;;;;;5041835;28;20060;-73
2022/09/01 02:32:35;;;;;;;2.00;1.80;;;12.30;99.90;;;;;;5044833;28;20140;-74
2022/09/01 02:35:06;;;;;;;2.05;1.85;;;12.30;99.90;;;;;;5027853;28;20036;-73
2022/09/01 02:37:32;;;;;;;2.00;1.80;;;12.30;99.90;;;;;;5035304;28;20041;-73
2022/09/01 02:39:58;;;;;;;2.08;1.85;;;12.30;99.90;;;;;;5045985;28;20094;-73
2022/09/01 02:42:25;;;;;;;1.70;1.60;;;12.30;99.90;;;;;;5045582;28;20044;-74
2022/09/01 02:44:52;;;;;;;2.05;1.85;;;12.20;99.90;;;;;;5042052;28;20377;-74
2022/09/01 02:47:18;;;;;;;2.45;2.03;;;12.20;99.90;;;;;;5043915;28;20056;-73
2022/09/01 02:49:44;;;;;;;2.15;1.90;;;12.20;99.90;;;;;;5041000;28;20059;-73
2022/09/01 02:52:10;;;;;;;2.92;1.88;;;12.20;99.90;;;;;;5052324;28;20068;-73
2022/09/01 02:54:35;;;;;;;2.08;1.88;;;12.10;99.90;;;;;;5043777;28;20067;-74
2022/09/01 02:57:02;;;;;;;2.05;1.85;;;12.10;99.90;;;;;;5045819;28;20029;-74
2022/09/01 02:59:29;;;;;;;2.67;1.88;;;12.10;99.90;;;;;;5045665;28;20449;-74
2022/09/01 03:01:56;;;;;;;2.63;1.88;;;12.10;99.90;;;;;;5038631;28;20036;-74
2022/09/01 03:04:22;;;;;;;4.90;2.20;;;12.00;99.90;;;;;;5046646;28;20041;-74
2022/09/01 03:06:52;;;;;;;2.00;1.85;;;12.00;99.90;;;;;;5029059;28;20059;-74
2022/09/01 03:09:18;;;;;;;2.33;2.13;;;11.90;99.90;;;;;;5048834;28;20045;-74
2022/09/01 03:11:48;;;;;;;2.50;2.30;;;11.90;99.90;;;;;;5044800;28;20368;-73
2022/09/01 03:14:13;;;;;;;2.60;2.22;;;11.90;99.90;;;;;;5029661;28;20429;-74
2022/09/01 03:16:40;;;;;;;2.45;2.17;;;11.80;99.90;;;;;;5041863;28;20040;-74
2022/09/01 03:19:07;;;;;;;2.53;2.33;;;11.80;99.90;;;;;;5041732;28;20037;-74
2022/09/01 03:21:34;;;;;;;2.40;2.20;;;11.70;99.90;;;;;;5022602;28;20048;-74
2022/09/01 03:24:02;;;;;;;2.55;2.33;;;11.70;99.90;;;;;;5029002;28;20040;-74
2022/09/01 03:26:31;;;;;;;2.42;2.22;;;11.70;99.90;;;;;;5040645;22;20045;-78
2022/09/01 03:28:58;;;;;;;2.38;2.17;;;11.70;99.90;;;;;;5010289;28;20122;-78
2022/09/01 03:31:28;;;;;;;2.40;2.20;;;11.70;99.90;;;;;;5028998;28;20407;-77
2022/09/01 03:33:57;;;;;;;2.70;2.50;;;11.60;99.90;;;;;;5002470;28;20037;-77
2022/09/01 03:36:28;;;;;;;3.47;2.42;;;11.60;99.90;;;;;;5023536;28;20036;-78
2022/09/01 03:38:58;;;;;;;2.22;2.00;;;11.60;99.90;;;;;;5012436;28;20041;-77
2022/09/01 03:41:27;;;;;;;2.33;2.10;;;11.60;99.90;;;;;;5014310;28;20041;-77
2022/09/01 03:43:58;;;;;;;2.97;2.20;;;11.50;99.90;;;;;;5023664;28;20105;-77
2022/09/01 03:46:26;;;;;;;2.80;2.45;;;11.50;99.90;;;;;;5021917;28;20037;-77
2022/09/01 03:48:57;;;;;;;2.60;2.40;;;11.60;99.90;;;;;;5021055;28;20037;-76
2022/09/01 03:51:24;;;;;;;2.67;2.47;;;11.50;99.90;;;;;;5014467;28;20040;-78
2022/09/01 03:53:53;;;;;;;2.63;2.42;;;11.50;99.90;;;;;;5025812;28;20059;-76
2022/09/01 03:56:20;;;;;;;2.92;2.58;;;11.50;99.90;;;;;;5023015;28;20068;-78
2022/09/01 03:58:47;;;;;;;3.05;2.47;;;11.40;99.90;;;;;;5019190;28;20460;-78
2022/09/01 04:01:14;;;;;;;3.63;2.42;;;11.40;99.90;;;;;;5012527;28;20033;-77
2022/09/01 04:03:41;;;;;;;2.50;2.30;;;11.40;99.90;;;;;;5015218;28;20167;-77
2022/09/01 04:06:09;;;;;;;2.60;2.40;;;11.40;99.90;;;;;;5022928;28;20040;-77
2022/09/01 04:08:36;;;;;;;2.13;1.95;;;11.40;99.90;;;;;;5013600;28;20065;-78
2022/09/01 04:11:10;;;;;;;2.45;2.25;;;11.30;99.90;;;;;;5018800;28;20032;-78
2022/09/01 04:13:38;;;;;;;2.55;2.35;;;11.30;99.90;;;;;;5022490;28;20408;-77
2022/09/01 04:19:14;;;;;;;2.70;2.50;;;11.20;99.90;;;;;;5000815;28;20041;-77
2022/09/01 04:21:45;;;;;;;2.63;2.42;;;11.20;99.90;;;;;;5024085;28;20507;-78
2022/09/01 04:24:14;;;;;;;2.88;2.45;;;11.10;99.90;;;;;;5024306;28;20040;-78
2022/09/01 04:26:41;;;;;;;2.58;2.38;;;11.20;99.90;;;;;;5018106;28;20495;-78
2022/09/01 04:29:11;;;;;;;2.80;2.50;;;11.10;99.90;;;;;;5016058;28;20042;-78
2022/09/01 04:31:39;;;;;;;2.88;2.55;;;11.20;99.90;;;;;;5024651;28;20045;-77
2022/09/01 04:34:12;;;;;;;2.92;2.60;;;11.20;99.90;;;;;;5019719;28;20053;-76
2022/09/01 04:36:40;;;;;;;2.95;2.65;;;11.10;99.90;;;;;;5015714;28;20044;-78
2022/09/01 04:39:08;;;;;;;2.55;2.35;;;11.00;99.90;;;;;;5022551;28;20033;-77
2022/09/01 04:41:44;;;;;;;2.58;2.38;;;11.10;99.90;;;;;;5023069;28;20042;-77
2022/09/01 04:44:14;;;;;;;3.00;2.60;;;11.00;99.90;;;;;;5023509;28;20406;-77
2022/09/01 04:46:46;;;;;;;3.22;2.55;;;11.00;99.90;;;;;;5024816;28;20045;-77
2022/09/01 04:49:18;;;;;;;3.40;2.60;;;10.90;99.90;;;;;;5015174;28;20041;-78
2022/09/01 04:51:47;;;;;;;3.20;2.90;;;10.90;99.90;;;;;;5024626;28;20040;-77
2022/09/01 04:54:16;;;;;;;3.28;2.97;;;10.80;99.90;;;;;;5017029;28;20029;-77
2022/09/01 04:56:48;;;;;;;3.00;2.80;;;10.80;99.90;;;;;;5008771;28;20041;-77
2022/09/01 04:59:15;;;;;;;2.70;2.50;;;10.80;99.90;;;;;;5024366;28;20112;-77
2022/09/01 05:01:45;;;;;;;2.70;2.25;;;10.90;99.90;;;;;;5013755;28;20038;-77
2022/09/01 05:04:16;;;;;;;2.60;2.40;;;10.70;99.90;;;;;;5023867;28;20037;-77
2022/09/01 05:06:48;;;;;;;2.97;2.75;;;10.70;99.90;;;;;;5017730;28;20183;-77
2022/09/01 05:09:16;;;;;;;3.40;2.90;;;10.60;99.90;;;;;;5014714;28;20488;-77
2022/09/01 05:11:44;;;;;;;2.97;2.67;;;10.60;99.90;;;;;;5017707;28;20046;-77
2022/09/01 05:14:11;;;;;;;3.08;2.78;;;10.60;99.90;;;;;;5023901;28;20069;-77
2022/09/01 05:16:43;;;;;;;2.88;2.67;;;10.60;99.90;;;;;;5029399;28;20107;-77
2022/09/01 05:19:16;;;;;;;2.88;2.67;;;10.60;99.90;;;;;;5040113;28;20045;-80
2022/09/01 05:21:46;;;;;;;2.92;2.72;;;10.70;99.90;;;;;;5022030;28;20045;-79
2022/09/01 05:24:20;;;;;;;;;;;10.70;99.90;;;;;;5026166;28;20041;-80
2022/09/01 05:26:51;;;;;;;3.33;3.03;;;10.70;99.90;;;;;;5023419;28;20108;-80
2022/09/01 05:29:24;;;;;;;3.17;2.88;;;10.80;99.90;;;;;;5038144;28;20124;-79
2022/09/01 05:31:54;;;;;;;3.92;3.03;;;10.80;99.90;;;;;;5023015;28;20438;-79
2022/09/01 05:34:28;;;;;;;3.13;2.88;;;10.90;99.90;;;;;;5016903;28;20037;-81
2022/09/01 05:37:05;;;;;;;3.25;2.95;;;10.90;99.90;;;;;;5019559;28;20029;-77
2022/09/01 05:39:35;;;;;;;3.30;3.00;;;11.00;99.90;;;;;;5043306;28;20232;-79
2022/09/01 05:42:03;;;;;;;3.30;3.00;;;11.10;99.90;;;;;;5047475;28;20124;-80
2022/09/01 06:10:29;;;;;;;2.97;2.70;;;12.10;99.90;;;;;;5602545;22;20088;-81
2022/09/01 06:13:36;;;;;;;2.83;2.55;;;12.20;99.90;;;;;;5006582;28;20457;-81
2022/09/01 06:16:56;;;;;;;2.80;2.55;;;12.30;99.90;;;;;;4997616;28;20046;-82
2022/09/01 06:19:41;;;;;;;3.10;2.80;;;12.40;99.90;;;;;;4888070;28;20489;-80
2022/09/01 07:00:22;;;;;;;2.25;2.05;;;14.30;99.90;;;;;;5969991;23;20041;-76
2022/09/01 07:02:54;;;;;;;2.13;1.92;;;14.50;99.90;;;;;;5012698;28;20054;-76
2022/09/01 07:05:20;;;;;;;2.28;2.08;;;14.50;99.90;;;;;;5014467;28;20049;-76
2022/09/01 07:07:53;;;;;;;1.98;1.77;;;14.70;99.90;;;;;;5014272;28;20033;-76
2022/09/01 07:10:22;;;;;;;2.22;2.03;;;14.70;99.90;;;;;;5006721;28;20477;-76
2022/09/01 07:12:49;;;;;;;2.33;2.10;;;14.90;99.90;;;;;;5013328;28;20053;-76
2022/09/01 07:15:18;;;;;;;2.38;1.90;;;15.10;99.90;;;;;;5010341;28;20034;-77
2022/09/01 07:17:51;;;;;;;2.10;1.90;;;15.10;99.90;;;;;;5012652;28;20116;-77
2022/09/01 07:20:19;;;;;;;2.50;1.90;;;15.30;99.90;;;;;;5014208;28;20586;-77
2022/09/01 07:22:49;;;;;;;1.80;1.70;;;15.40;99.90;;;;;;5014484;28;20467;-76
2022/09/01 07:25:16;;;;;;;1.90;1.80;;;15.50;99.90;;;;;;4991737;28;20539;-76
2022/09/01 07:27:49;;;;;;;1.70;1.60;;;15.60;99.90;;;;;;5013889;28;20049;-76
2022/09/01 07:30:21;;;;;;;1.83;1.70;;;15.70;99.90;;;;;;5012657;28;20050;-76
2022/09/01 07:32:48;;;;;;;2.13;1.50;;;15.70;99.90;;;;;;5006158;28;20092;-76
2022/09/01 07:35:18;;;;;;;1.60;1.50;;;16.00;99.90;;;;;;5013975;28;20121;-76
2022/09/01 07:37:47;;;;;;;1.67;1.48;;;16.10;99.90;;;;;;5014067;28;20052;-76
2022/09/01 07:40:17;;;;;;;2.25;1.60;;;16.20;99.90;;;;;;5013159;28;20402;-76
2022/09/01 07:42:47;;;;;;;2.20;1.70;;;16.30;99.90;;;;;;5013782;28;20044;-76
2022/09/01 07:45:16;;;;;;;2.20;1.70;;;16.50;99.90;;;;;;4997540;28;20046;-76
2022/09/01 07:47:43;;;;;;;2.88;2.10;;;16.60;99.90;;;;;;4996030;28;20041;-76
2022/09/01 07:50:11;;;;;;;2.22;1.70;;;16.60;99.90;;;;;;5013765;28;20091;-76
2022/09/01 07:52:41;;;;;;;1.83;1.48;;;16.70;99.90;;;;;;5013898;28;20045;-76
2022/09/01 07:55:16;;;;;;;2.03;1.63;;;16.90;99.90;;;;;;5014050;28;20049;-76
2022/09/01 07:57:44;;;;;;;1.95;1.60;;;17.00;99.90;;;;;;5006271;28;20034;-76
2022/09/01 08:00:12;;;;;;;1.63;1.50;;;17.10;99.90;;;;;;4997177;28;20030;-76
2022/09/01 08:02:42;;;;;;;1.60;1.42;;;17.20;99.90;;;;;;5014047;28;20044;-76
2022/09/01 08:05:10;;;;;;;2.22;1.40;;;17.40;99.90;;;;;;5014036;28;20495;-76
2022/09/01 08:07:36;;;;;;;1.58;1.48;;;17.50;99.30;;;;;;5005236;28;20053;-76
2022/09/01 08:10:04;;;;;;;1.63;1.42;;;17.60;99.70;;;;;;4997056;28;20041;-76
2022/09/01 08:12:30;;;;;;;1.52;1.38;;;17.70;99.40;;;;;;5010790;28;20041;-76
2022/09/01 08:14:55;;;;;;;1.63;1.30;;;17.90;99.00;;;;;;5013677;28;20371;-76
2022/09/01 08:17:21;;;;;;;2.20;1.30;;;17.90;97.60;;;;;;5013676;28;20041;-76
2022/09/01 08:19:47;;;;;;;1.90;1.50;;;18.00;97.30;;;;;;5013674;28;20045;-76
2022/09/01 08:22:14;;;;;;;1.80;1.30;;;18.10;96.80;;;;;;5012120;28;20408;-76
2022/09/01 08:24:41;;;;;;;2.15;1.60;;;18.30;96.70;;;;;;5005135;28;20503;-76
2022/09/01 08:27:07;;;;;;;2.25;1.33;;;18.40;95.90;;;;;;5012499;28;20380;-76
2022/09/01 08:29:33;;;;;;;1.48;1.38;;;18.50;95.00;;;;;;5013424;28;20048;-76
2022/09/01 08:31:59;;;;;;;1.40;1.17;;;18.70;94.50;;;;;;5013676;28;20549;-76
2022/09/01 08:34:25;;;;;;;2.17;1.10;;;18.90;94.70;;;;;;4994465;28;20121;-76
2022/09/01 08:36:51;;;;;;;0.90;0.80;;;19.40;95.20;;;;;;5013578;28;20091;-76
2022/09/01 08:39:18;;;;;;;1.25;0.90;;;20.10;93.10;;;;;;5013550;28;20456;-76
2022/09/01 08:41:53;;;;;;;1.00;0.90;;;20.90;91.60;;;;;;5013396;28;20037;-77
2022/09/01 08:44:49;;;;;;;1.50;1.10;;;21.70;91.60;;;;;;4997110;28;20045;-77
2022/09/01 08:47:17;;;;;;;1.10;0.80;;;22.60;84.20;;;;;;5007028;28;20088;-77
2022/09/01 08:49:45;;;;;;;1.23;0.95;;;23.20;85.70;;;;;;5013134;28;20037;-77
2022/09/01 08:52:31;;;;;;;1.20;0.90;;;23.60;81.00;;;;;;5013277;28;20120;-76
2022/09/01 08:55:15;;;;;;;1.40;0.63;;;23.90;74.60;;;;;;5014848;28;20056;-76
2022/09/01 08:57:44;;;;;;;1.70;0.82;;;24.00;74.10;;;;;;5009511;28;20042;-77
2022/09/01 09:00:13;;;;;;;1.85;0.80;;;24.20;73.30;;;;;;5000149;28;20080;-77
2022/09/01 09:02:48;;;;;;;1.73;0.80;;;24.40;73.10;;;;;;5016843;28;20045;-77
2022/09/01 09:05:28;;;;;;;0.80;0.80;;;24.60;70.90;;;;;;5017042;28;20459;-76
2022/09/01 09:08:09;;;;;;;0.70;0.50;;;24.70;69.50;;;;;;5016606;28;20081;-77
2022/09/01 09:10:59;;;;;;;0.77;0.63;;;24.80;66.10;;;;;;5016929;28;20038;-77
2022/09/01 09:13:43;;;;;;;0.98;0.65;;;24.90;68.80;;;;;;5012841;28;20033;-77
2022/09/01 09:16:16;;;;;;;0.63;0.45;;;25.10;65.00;;;;;;4996853;28;20045;-76
2022/09/01 09:18:51;;;;;;;1.42;0.70;;;25.10;65.00;;;;;;4996759;28;20561;-76
2022/09/01 09:21:28;;;;;;;1.10;0.57;;;25.10;62.80;;;;;;4996782;28;20081;-76
2022/09/01 09:24:02;;;;;;;1.00;0.60;;;25.00;62.40;;;;;;4988331;28;20045;-76
2022/09/01 09:26:30;;;;;;;0.70;0.68;;;25.00;62.20;;;;;;4999320;28;20374;-77
2022/09/01 09:28:55;;;;;;;0.98;0.60;;;24.90;61.90;;;;;;5008040;28;20050;-77
2022/09/01 09:31:33;;;;;;;1.20;0.60;;;24.90;63.70;;;;;;5016369;28;20044;-77
2022/09/01 09:33:59;;;;;;;1.23;0.57;;;25.10;63.60;;;;;;4999783;28;20037;-77
2022/09/01 09:36:32;;;;;;;2.15;0.50;;;25.40;62.60;;;;;;5016034;28;20333;-77
2022/09/01 09:39:05;;;;;;;;;;;25.50;59.80;;;;;;5012931;28;20045;-74
2022/09/01 09:41:31;;;;;;;0.50;0.50;;;25.40;59.50;;;;;;4999728;28;19917;-74
2022/09/01 09:44:17;;;;;;;0.70;0.50;;;25.40;60.40;;;;;;5015918;28;20071;-74
2022/09/01 09:46:46;;;;;;;0.68;0.50;;;25.60;60.40;;;;;;5016131;28;20045;-74
2022/09/01 09:49:23;;;;;;;0.47;0.35;;;25.80;57.50;;;;;;5015724;28;20510;-74
2022/09/01 09:52:09;;;;;;;1.38;0.50;;;25.80;56.80;;;;;;5011073;28;20055;-74
2022/09/01 09:54:37;;;;;;;0.60;0.40;;;25.80;57.40;;;;;;4986547;28;20049;-74
2022/09/01 09:57:15;;;;;;;0.73;0.50;;;25.80;56.50;;;;;;4996267;28;20392;-74
2022/09/01 09:59:48;;;;;;;0.60;0.50;;;25.70;56.20;;;;;;4998381;28;20042;-74
2022/09/01 10:02:31;;;;;;;;;;;25.70;55.40;;;;;;5014349;28;20038;-74
2022/09/01 10:05:00;;;;;;;0.50;0.47;;;25.60;54.70;;;;;;4979815;28;20020;-74
2022/09/01 10:07:35;;;;;;;0.65;0.50;;;25.40;55.30;;;;;;4994969;28;20041;-74
2022/09/01 10:10:04;;;;;;;0.60;0.57;;;25.40;56.70;;;;;;5000393;28;20092;-74
2022/09/01 10:12:31;;;;;;;0.77;0.60;;;25.70;57.00;;;;;;5015325;28;20044;-74
2022/09/01 10:15:09;;;;;;;0.63;0.60;;;26.10;56.00;;;;;;5015461;28;20052;-74
2022/09/01 10:17:41;;;;;;;0.88;0.40;;;26.20;53.70;;;;;;5015446;28;20037;-74
2022/09/01 10:20:19;;;;;;;1.55;0.65;;;26.00;53.50;;;;;;5015035;28;20048;-74
2022/09/01 10:22:46;;;;;;;0.52;0.40;;;25.80;53.30;;;;;;4999215;28;20503;-74
2022/09/01 10:25:25;;;;;;;2.88;0.80;;;25.60;53.60;;;;;;5005903;28;20403;-73
2022/09/01 10:27:58;;;;;;;0.68;0.50;;;25.70;52.20;;;;;;5014261;28;20079;-73
2022/09/01 10:30:24;;;;;;;0.45;0.40;;;25.80;51.70;;;;;;5015069;28;20507;-74
2022/09/01 10:32:53;;;;;;;0.38;0.38;;;25.60;52.10;;;;;;5015065;28;20034;-74
2022/09/01 10:35:33;;;;;;;0.60;0.55;;;25.60;52.50;;;;;;5015268;28;20095;-76
2022/09/01 10:38:06;;;;;;;1.08;0.60;;;25.40;52.10;;;;;;5014896;28;20041;-77
2022/09/01 10:40:39;;;;;;;0.45;0.30;;;25.30;53.90;;;;;;5010003;28;20037;-76
2022/09/01 10:43:22;;;;;;;;;;;25.20;53.40;;;;;;5015246;28;20113;-76
2022/09/01 10:45:48;;;;;;;0.35;0.30;;;25.00;51.40;;;;;;5014945;28;20008;-76
2022/09/01 10:48:20;;;;;;;1.33;0.50;;;24.90;52.10;;;;;;5014622;28;20519;-76
2022/09/01 10:50:48;;;;;;;0.40;0.40;;;25.00;51.00;;;;;;5014656;28;20124;-76
2022/09/01 10:53:32;;;;;;;0.57;0.40;;;24.60;51.50;;;;;;5013547;28;20033;-76
2022/09/01 10:56:09;;;;;;;0.50;0.40;;;24.40;52.60;;;;;;5014599;28;20033;-76
2022/09/01 10:59:00;;;;;;;0.77;0.47;;;24.60;52.80;;;;;;5014724;28;20041;-76
2022/09/01 11:01:44;;;;;;;0.57;0.47;;;24.70;52.80;;;;;;5014727;28;20037;-77
2022/09/01 11:04:15;;;;;;;1.10;0.50;;;25.20;53.30;;;;;;5012561;28;20433;-76
2022/09/01 11:06:41;;;;;;;0.50;0.40;;;25.70;52.90;;;;;;5014373;28;20053;-76
2022/09/01 11:09:17;;;;;;;0.50;0.30;;;26.00;52.70;;;;;;5014418;28;20400;-77
2022/09/01 11:11:50;;;;;;;2.15;0.50;;;26.20;52.70;;;;;;5014444;28;20076;-77
2022/09/01 11:14:22;;;;;;;0.80;0.50;;;26.40;53.00;;;;;;4997974;28;20229;-77
2022/09/01 11:17:18;;;;;;;0.52;0.40;;;26.70;51.20;;;;;;5014370;28;20511;-76
2022/09/01 11:19:46;;;;;;;0.70;0.50;;;27.00;49.30;;;;;;5007007;28;20511;-76
2022/09/01 11:22:28;;;;;;;0.60;0.40;;;27.10;49.90;;;;;;5014021;28;20041;-76
2022/09/01 11:25:09;;;;;;;0.47;0.35;;;27.10;50.50;;;;;;5014275;28;20041;-76
2022/09/01 11:27:47;;;;;;;0.68;0.40;;;27.20;49.60;;;;;;5014243;28;20042;-76
2022/09/01 11:30:22;;;;;;;0.45;0.43;;;27.50;50.00;;;;;;5011722;28;20053;-76
2022/09/01 11:32:56;;;;;;;0.77;0.60;;;27.70;48.10;;;;;;5009713;28;20353;-76
2022/09/01 11:35:27;;;;;;;0.82;0.50;;;27.80;46.70;;;;;;5014206;28;20111;-77
2022/09/01 11:38:00;;;;;;;0.80;0.47;;;27.30;46.50;;;;;;4997833;28;20174;-76
2022/09/01 11:40:30;;;;;;;0.30;0.30;;;26.60;47.70;;;;;;5014216;28;20444;-76
2022/09/01 11:42:57;;;;;;;0.73;0.40;;;26.60;49.80;;;;;;5014132;28;20044;-77
2022/09/01 11:45:27;;;;;;;2.15;0.68;;;27.00;49.70;;;;;;4994982;28;20076;-77
2022/09/01 11:47:57;;;;;;;0.73;0.35;;;27.20;47.80;;;;;;5013864;28;20041;-77
2022/09/01 11:50:25;;;;;;;0.32;0.20;;;26.80;48.10;;;;;;5005679;28;20046;-74
2022/09/01 11:53:04;;;;;;;0.40;0.40;;;26.50;47.80;;;;;;5013854;28;20034;-74
2022/09/01 11:55:31;;;;;;;0.75;0.43;;;25.80;47.50;;;;;;5013840;28;20045;-73
2022/09/01 11:57:58;;;;;;;0.35;0.22;;;25.20;47.90;;;;;;5014095;28;20072;-73
2022/09/01 12:00:37;;;;;;;0.43;0.38;;;24.80;49.20;;;;;;5013000;28;20073;-75
2022/09/01 12:03:21;;;;;;;0.50;0.40;;;25.20;50.40;;;;;;5006769;28;20045;-74
2022/09/01 12:05:54;;;;;;;0.38;0.30;;;25.90;49.60;;;;;;5013831;28;20137;-74
2022/09/01 12:08:20;;;;;;;;;;;25.80;46.90;;;;;;5013016;28;20045;-73
2022/09/01 12:10:47;;;;;;;0.80;0.38;;;25.50;46.60;;;;;;5013511;28;19917;-73
2022/09/01 12:13:23;;;;;;;0.52;0.30;;;25.00;47.40;;;;;;5013926;28;20377;-73
2022/09/01 12:15:54;;;;;;;1.25;0.50;;;24.50;48.10;;;;;;5007956;28;20046;-73
2022/09/01 12:18:27;;;;;;;0.70;0.40;;;24.40;49.00;;;;;;4995167;28;20084;-74
2022/09/01 12:20:56;;;;;;;1.27;0.40;;;24.20;49.70;;;;;;5026582;28;20069;-74
2022/09/01 12:23:29;;;;;;;0.43;0.40;;;23.90;50.30;;;;;;5013514;28;20049;-73
2022/09/01 12:25:58;;;;;;;0.75;0.40;;;23.80;50.50;;;;;;5009906;28;20493;-74
2022/09/01 12:28:29;;;;;;;0.90;0.45;;;23.70;51.10;;;;;;5009091;28;20557;-73
2022/09/01 12:30:57;;;;;;;0.30;0.30;;;23.50;50.40;;;;;;4997062;28;20077;-73
2022/09/01 12:33:23;;;;;;;1.20;0.50;;;23.50;51.20;;;;;;4997408;28;20041;-74
2022/09/01 12:35:49;;;;;;;1.08;0.65;;;24.50;51.20;;;;;;5012641;28;20061;-74
2022/09/01 12:38:27;;;;;;;0.75;0.50;;;25.00;50.00;;;;;;5033650;28;20479;-74
2022/09/01 12:40:55;;;;;;;0.50;0.40;;;25.50;49.10;;;;;;5000865;28;20124;-73
2022/09/01 12:43:34;;;;;;;0.30;0.30;;;26.00;48.00;;;;;;5000841;28;20090;-74
2022/09/01 12:46:00;;;;;;;0.40;0.40;;;26.50;48.40;;;;;;5017074;28;20090;-74
2022/09/01 12:48:28;;;;;;;1.60;0.50;;;26.90;48.10;;;;;;5016792;28;20489;-73
2022/09/01 12:50:58;;;;;;;0.93;0.40;;;26.70;47.30;;;;;;5009637;28;20033;-73
2022/09/01 12:53:27;;;;;;;0.80;0.50;;;26.10;47.70;;;;;;5017321;28;20089;-74
2022/09/01 12:56:05;;;;;;;0.75;0.50;;;25.40;48.30;;;;;;5000823;28;20037;-75
2022/09/01 12:58:32;;;;;;;0.35;0.35;;;25.10;49.00;;;;;;5010773;28;20048;-75
2022/09/01 13:01:06;;;;;;;0.65;0.40;;;25.60;48.90;;;;;;5000270;28;20037;-74
2022/09/01 13:03:32;;;;;;;0.70;0.50;;;26.00;48.10;;;;;;5000381;28;20049;-73
2022/09/01 13:06:00;;;;;;;0.35;0.32;;;25.60;47.70;;;;;;5001444;28;20037;-73
2022/09/01 13:08:30;;;;;;;0.57;0.40;;;25.30;48.00;;;;;;5000128;28;20495;-73
2022/09/01 13:11:01;;;;;;;0.95;0.50;;;25.00;48.50;;;;;;4997882;28;20088;-73
2022/09/01 13:13:28;;;;;;;0.85;0.50;;;24.70;49.00;;;;;;5013125;28;20457;-74
2022/09/01 13:26:15;;;;;;;0.57;0.30;;;24.20;50.00;;;;;;5541143;23;20042;-76
2022/09/01 13:28:40;;;;;;;0.90;0.52;;;24.50;49.80;;;;;;4988296;28;20053;-76
2022/09/01 13:31:06;;;;;;;0.68;0.30;;;24.60;49.30;;;;;;4987434;28;20058;-76
2022/09/01 13:33:33;;;;;;;0.40;0.40;;;24.90;49.20;;;;;;4993533;28;20042;-76
2022/09/01 13:35:59;;;;;;;0.32;0.32;;;25.40;48.80;;;;;;4996512;28;20045;-76
2022/09/01 13:38:24;;;;;;;0.80;0.45;;;25.60;48.50;;;;;;4996531;28;20041;-75
2022/09/01 13:40:51;;;;;;;0.73;0.40;;;25.90;47.10;;;;;;4995839;28;20500;-76
2022/09/01 13:43:22;;;;;;;1.08;0.50;;;25.80;47.00;;;;;;4982965;28;20408;-77
2022/09/01 13:45:49;;;;;;;0.47;0.40;;;25.90;47.80;;;;;;4988503;28;20045;-76
2022/09/01 13:48:15;;;;;;;0.57;0.40;;;26.50;48.50;;;;;;4990833;28;20045;-76
2022/09/01 13:50:42;;;;;;;0.65;0.40;;;27.00;46.30;;;;;;4995972;28;20511;-76
2022/09/01 13:53:07;;;;;;;1.73;0.30;;;27.50;45.90;;;;;;4981132;28;20114;-76
2022/09/01 13:55:39;;;;;;;0.55;0.45;;;27.70;44.90;;;;;;4979445;28;20528;-76
2022/09/01 13:58:05;;;;;;;0.47;0.40;;;27.50;44.40;;;;;;4980590;28;20056;-76
2022/09/01 14:00:34;;;;;;;0.20;0.20;;;26.70;44.20;;;;;;4987983;28;20042;-76
2022/09/01 14:03:04;;;;;;;1.30;0.40;;;25.80;45.70;;;;;;4979907;28;20422;-75
2022/09/01 14:05:32;;;;;;;1.05;0.50;;;25.50;46.30;;;;;;4979723;28;20052;-77
2022/09/01 14:07:59;;;;;;;0.63;0.57;;;25.50;46.80;;;;;;4976888;28;20042;-76
2022/09/01 14:10:26;;;;;;;0.50;0.40;;;25.50;46.60;;;;;;4991901;28;20492;-75
2022/09/01 14:12:52;;;;;;;0.63;0.30;;;25.60;46.60;;;;;;4995979;28;20518;-77
2022/09/01 14:15:19;;;;;;;0.50;0.40;;;25.80;46.30;;;;;;4995843;28;20034;-76
2022/09/01 14:17:50;;;;;;;0.50;0.38;;;26.00;46.30;;;;;;4984298;28;20084;-77
2022/09/01 14:20:22;;;;;;;0.47;0.30;;;26.10;47.00;;;;;;4990767;28;20129;-77
2022/09/01 14:22:49;;;;;;;0.60;0.40;;;26.30;47.00;;;;;;4995967;28;20081;-75
2022/09/01 14:25:16;;;;;;;0.65;0.50;;;26.40;45.70;;;;;;4995400;28;20129;-76
2022/09/01 14:27:43;;;;;;;0.63;0.40;;;26.20;44.90;;;;;;4995409;28;20037;-76